sensor_id;sensor_type;location;lat;lon;timestamp;P1;durP1;ratioP1;P2;durP2;ratioP2
30247;SDS011;17063;50.892;4.702;2024-01-15T00:02:02;33.50;;;11.27;;
30247;SDS011;17063;50.892;4.702;2024-01-15T00:04:29;27.42;;;10.68;;
30247;SDS011;17063;50.892;4.702;2024-01-15T00:06:57;28.75;;;11.20;;
30247;SDS011;17063;50.892;4.702;2024-01-15T00:09:24;25.00;;;10.43;;
30247;SDS011;17063;50.892;4.702;2024-01-15T00:11:51;27.52;;;10.35;;
30247;SDS011;17063;50.892;4.702;2024-01-15T00:14:18;26.92;;;10.40;;
30247;SDS011;17063;50.892;4.702;2024-01-15T00:16:46;28.10;;;10.40;;
30247;SDS011;17063;50.892;4.702;2024-01-15T00:19:16;24.13;;;10.68;;
30247;SDS011;17063;50.892;4.702;2024-01-15T00:21:44;26.10;;;10.98;;
30247;SDS011;17063;50.892;4.702;2024-01-15T00:24:11;26.08;;;10.57;;
30247;SDS011;17063;50.892;4.702;2024-01-15T00:26:39;26.33;;;9.93;;
30247;SDS011;17063;50.892;4.702;2024-01-15T00:29:06;27.27;;;10.23;;
30247;SDS011;17063;50.892;4.702;2024-01-15T00:31:36;31.42;;;11.10;;
30247;SDS011;17063;50.892;4.702;2024-01-15T00:34:03;29.48;;;10.75;;
30247;SDS011;17063;50.892;4.702;2024-01-15T00:36:30;24.73;;;10.07;;
30247;SDS011;17063;50.892;4.702;2024-01-15T00:38:57;26.58;;;9.55;;
30247;SDS011;17063;50.892;4.702;2024-01-15T00:41:24;26.08;;;9.80;;
30247;SDS011;17063;50.892;4.702;2024-01-15T00:43:51;27.52;;;10.00;;
30247;SDS011;17063;50.892;4.702;2024-01-15T00:46:18;22.10;;;8.80;;
30247;SDS011;17063;50.892;4.702;2024-01-15T00:48:44;23.08;;;9.77;;
30247;SDS011;17063;50.892;4.702;2024-01-15T00:51:12;21.77;;;8.60;;
30247;SDS011;17063;50.892;4.702;2024-01-15T00:53:38;22.83;;;8.75;;
30247;SDS011;17063;50.892;4.702;2024-01-15T00:56:05;24.35;;;9.55;;
30247;SDS011;17063;50.892;4.702;2024-01-15T00:58:32;19.73;;;7.72;;
30247;SDS011;17063;50.892;4.702;2024-01-15T01:00:59;20.20;;;8.25;;
30247;SDS011;17063;50.892;4.702;2024-01-15T01:03:26;19.38;;;7.97;;
30247;SDS011;17063;50.892;4.702;2024-01-15T01:05:53;15.90;;;7.15;;
30247;SDS011;17063;50.892;4.702;2024-01-15T01:08:20;18.23;;;7.63;;
30247;SDS011;17063;50.892;4.702;2024-01-15T01:10:46;16.70;;;7.13;;
30247;SDS011;17063;50.892;4.702;2024-01-15T01:13:13;17.00;;;7.20;;
30247;SDS011;17063;50.892;4.702;2024-01-15T01:15:40;15.13;;;7.00;;
30247;SDS011;17063;50.892;4.702;2024-01-15T01:18:07;19.88;;;7.43;;
30247;SDS011;17063;50.892;4.702;2024-01-15T01:20:34;15.75;;;7.13;;
30247;SDS011;17063;50.892;4.702;2024-01-15T01:23:01;17.77;;;7.43;;
30247;SDS011;17063;50.892;4.702;2024-01-15T01:25:28;20.35;;;7.50;;
30247;SDS011;17063;50.892;4.702;2024-01-15T01:27:55;16.33;;;6.40;;
30247;SDS011;17063;50.892;4.702;2024-01-15T01:30:21;14.27;;;6.13;;
30247;SDS011;17063;50.892;4.702;2024-01-15T01:32:48;14.98;;;6.45;;
30247;SDS011;17063;50.892;4.702;2024-01-15T01:35:15;11.95;;;6.07;;
30247;SDS011;17063;50.892;4.702;2024-01-15T01:37:42;15.13;;;6.97;;
30247;SDS011;17063;50.892;4.702;2024-01-15T01:40:09;14.63;;;6.50;;
30247;SDS011;17063;50.892;4.702;2024-01-15T01:42:36;14.02;;;6.55;;
30247;SDS011;17063;50.892;4.702;2024-01-15T01:45:03;16.30;;;6.93;;
30247;SDS011;17063;50.892;4.702;2024-01-15T01:47:31;12.73;;;6.10;;
30247;SDS011;17063;50.892;4.702;2024-01-15T01:49:58;11.13;;;5.20;;
30247;SDS011;17063;50.892;4.702;2024-01-15T01:52:25;11.13;;;5.45;;
30247;SDS011;17063;50.892;4.702;2024-01-15T01:54:52;13.73;;;5.60;;
30247;SDS011;17063;50.892;4.702;2024-01-15T01:57:19;11.82;;;5.43;;
30247;SDS011;17063;50.892;4.702;2024-01-15T01:59:46;13.95;;;5.82;;
30247;SDS011;17063;50.892;4.702;2024-01-15T02:02:13;10.63;;;5.38;;
30247;SDS011;17063;50.892;4.702;2024-01-15T02:04:40;10.63;;;5.30;;
30247;SDS011;17063;50.892;4.702;2024-01-15T02:07:07;10.48;;;5.35;;
30247;SDS011;17063;50.892;4.702;2024-01-15T02:09:34;11.05;;;5.20;;
30247;SDS011;17063;50.892;4.702;2024-01-15T02:12:01;10.48;;;5.18;;
30247;SDS011;17063;50.892;4.702;2024-01-15T02:14:28;15.57;;;5.65;;
30247;SDS011;17063;50.892;4.702;2024-01-15T02:16:55;9.93;;;5.13;;
30247;SDS011;17063;50.892;4.702;2024-01-15T02:19:22;12.45;;;5.32;;
30247;SDS011;17063;50.892;4.702;2024-01-15T02:21:49;16.75;;;4.97;;
30247;SDS011;17063;50.892;4.702;2024-01-15T02:24:16;10.35;;;5.10;;
30247;SDS011;17063;50.892;4.702;2024-01-15T02:26:43;9.43;;;4.68;;
30247;SDS011;17063;50.892;4.702;2024-01-15T02:29:10;10.55;;;5.47;;
30247;SDS011;17063;50.892;4.702;2024-01-15T02:31:37;10.40;;;5.13;;
30247;SDS011;17063;50.892;4.702;2024-01-15T02:34:04;10.38;;;4.70;;
30247;SDS011;17063;50.892;4.702;2024-01-15T02:36:31;7.18;;;4.35;;
30247;SDS011;17063;50.892;4.702;2024-01-15T02:38:58;7.97;;;3.88;;
30247;SDS011;17063;50.892;4.702;2024-01-15T02:41:25;7.75;;;4.03;;
30247;SDS011;17063;50.892;4.702;2024-01-15T02:43:52;8.13;;;3.70;;
30247;SDS011;17063;50.892;4.702;2024-01-15T02:46:18;11.32;;;4.05;;
30247;SDS011;17063;50.892;4.702;2024-01-15T02:48:45;10.80;;;3.85;;
30247;SDS011;17063;50.892;4.702;2024-01-15T02:51:12;11.30;;;3.55;;
30247;SDS011;17063;50.892;4.702;2024-01-15T02:53:39;6.65;;;3.42;;
30247;SDS011;17063;50.892;4.702;2024-01-15T02:56:07;7.80;;;3.53;;
30247;SDS011;17063;50.892;4.702;2024-01-15T02:58:34;9.70;;;3.72;;
30247;SDS011;17063;50.892;4.702;2024-01-15T03:01:01;8.18;;;3.08;;
30247;SDS011;17063;50.892;4.702;2024-01-15T03:03:28;5.90;;;3.58;;
30247;SDS011;17063;50.892;4.702;2024-01-15T03:05:55;7.32;;;3.95;;
30247;SDS011;17063;50.892;4.702;2024-01-15T03:08:22;9.65;;;3.88;;
30247;SDS011;17063;50.892;4.702;2024-01-15T03:10:49;7.30;;;4.05;;
30247;SDS011;17063;50.892;4.702;2024-01-15T03:13:16;9.93;;;3.78;;
30247;SDS011;17063;50.892;4.702;2024-01-15T03:15:45;9.70;;;4.25;;
30247;SDS011;17063;50.892;4.702;2024-01-15T03:18:12;6.78;;;3.80;;
30247;SDS011;17063;50.892;4.702;2024-01-15T03:20:49;12.68;;;3.92;;
30247;SDS011;17063;50.892;4.702;2024-01-15T03:23:15;7.82;;;3.65;;
30247;SDS011;17063;50.892;4.702;2024-01-15T03:25:42;5.78;;;3.80;;
30247;SDS011;17063;50.892;4.702;2024-01-15T03:28:09;7.72;;;3.80;;
30247;SDS011;17063;50.892;4.702;2024-01-15T03:30:36;10.75;;;3.47;;
30247;SDS011;17063;50.892;4.702;2024-01-15T03:33:03;7.75;;;3.83;;
30247;SDS011;17063;50.892;4.702;2024-01-15T03:35:30;8.02;;;4.38;;
30247;SDS011;17063;50.892;4.702;2024-01-15T03:37:57;11.77;;;4.00;;
30247;SDS011;17063;50.892;4.702;2024-01-15T03:40:24;14.18;;;4.20;;
30247;SDS011;17063;50.892;4.702;2024-01-15T03:42:51;6.70;;;3.92;;
30247;SDS011;17063;50.892;4.702;2024-01-15T03:45:18;12.30;;;3.67;;
30247;SDS011;17063;50.892;4.702;2024-01-15T03:47:45;12.65;;;4.50;;
30247;SDS011;17063;50.892;4.702;2024-01-15T03:50:12;10.18;;;4.07;;
30247;SDS011;17063;50.892;4.702;2024-01-15T03:52:39;7.78;;;4.10;;
30247;SDS011;17063;50.892;4.702;2024-01-15T03:55:06;10.15;;;4.88;;
30247;SDS011;17063;50.892;4.702;2024-01-15T03:57:33;13.35;;;5.00;;
30247;SDS011;17063;50.892;4.702;2024-01-15T04:00:00;8.38;;;4.43;;
30247;SDS011;17063;50.892;4.702;2024-01-15T04:02:27;7.35;;;4.15;;
30247;SDS011;17063;50.892;4.702;2024-01-15T04:04:54;10.13;;;5.38;;
30247;SDS011;17063;50.892;4.702;2024-01-15T04:07:20;10.38;;;4.55;;
30247;SDS011;17063;50.892;4.702;2024-01-15T04:09:47;10.25;;;4.18;;
30247;SDS011;17063;50.892;4.702;2024-01-15T04:12:14;9.63;;;5.13;;
30247;SDS011;17063;50.892;4.702;2024-01-15T04:14:41;15.77;;;5.07;;
30247;SDS011;17063;50.892;4.702;2024-01-15T04:17:08;11.80;;;5.07;;
30247;SDS011;17063;50.892;4.702;2024-01-15T04:19:35;11.90;;;4.82;;
30247;SDS011;17063;50.892;4.702;2024-01-15T04:22:02;10.48;;;5.43;;
30247;SDS011;17063;50.892;4.702;2024-01-15T04:24:31;16.05;;;5.80;;
30247;SDS011;17063;50.892;4.702;2024-01-15T04:26:58;12.20;;;5.93;;
30247;SDS011;17063;50.892;4.702;2024-01-15T04:29:25;15.57;;;6.15;;
30247;SDS011;17063;50.892;4.702;2024-01-15T04:31:52;15.35;;;6.32;;
30247;SDS011;17063;50.892;4.702;2024-01-15T04:34:19;16.02;;;6.63;;
30247;SDS011;17063;50.892;4.702;2024-01-15T04:36:46;15.63;;;6.65;;
30247;SDS011;17063;50.892;4.702;2024-01-15T04:39:13;16.83;;;6.82;;
30247;SDS011;17063;50.892;4.702;2024-01-15T04:41:40;15.25;;;6.95;;
30247;SDS011;17063;50.892;4.702;2024-01-15T04:44:06;20.52;;;8.32;;
30247;SDS011;17063;50.892;4.702;2024-01-15T04:46:33;17.13;;;6.78;;
30247;SDS011;17063;50.892;4.702;2024-01-15T04:49:00;18.25;;;7.50;;
30247;SDS011;17063;50.892;4.702;2024-01-15T04:51:27;16.67;;;7.22;;
30247;SDS011;17063;50.892;4.702;2024-01-15T04:53:54;16.23;;;7.70;;
30247;SDS011;17063;50.892;4.702;2024-01-15T04:56:20;21.73;;;8.23;;
30247;SDS011;17063;50.892;4.702;2024-01-15T04:58:47;19.58;;;8.40;;
30247;SDS011;17063;50.892;4.702;2024-01-15T05:01:15;20.05;;;9.02;;
30247;SDS011;17063;50.892;4.702;2024-01-15T05:03:43;17.25;;;7.80;;
30247;SDS011;17063;50.892;4.702;2024-01-15T05:06:10;18.02;;;8.63;;
30247;SDS011;17063;50.892;4.702;2024-01-15T05:08:37;20.33;;;8.00;;
30247;SDS011;17063;50.892;4.702;2024-01-15T05:11:04;22.10;;;8.70;;
30247;SDS011;17063;50.892;4.702;2024-01-15T05:13:31;19.48;;;8.40;;
30247;SDS011;17063;50.892;4.702;2024-01-15T05:15:57;17.55;;;8.27;;
30247;SDS011;17063;50.892;4.702;2024-01-15T05:18:24;20.13;;;8.55;;
30247;SDS011;17063;50.892;4.702;2024-01-15T05:20:52;18.65;;;8.43;;
30247;SDS011;17063;50.892;4.702;2024-01-15T05:23:19;19.02;;;8.13;;
30247;SDS011;17063;50.892;4.702;2024-01-15T05:25:46;19.33;;;8.43;;
30247;SDS011;17063;50.892;4.702;2024-01-15T05:28:13;17.60;;;7.70;;
30247;SDS011;17063;50.892;4.702;2024-01-15T05:30:40;16.40;;;6.97;;
30247;SDS011;17063;50.892;4.702;2024-01-15T05:33:07;17.30;;;6.88;;
30247;SDS011;17063;50.892;4.702;2024-01-15T05:35:35;16.70;;;7.60;;
30247;SDS011;17063;50.892;4.702;2024-01-15T05:38:02;17.88;;;6.78;;
30247;SDS011;17063;50.892;4.702;2024-01-15T05:40:29;16.08;;;7.05;;
30247;SDS011;17063;50.892;4.702;2024-01-15T05:42:56;16.05;;;6.88;;
30247;SDS011;17063;50.892;4.702;2024-01-15T05:45:23;12.73;;;6.32;;
30247;SDS011;17063;50.892;4.702;2024-01-15T05:47:50;13.77;;;6.32;;
30247;SDS011;17063;50.892;4.702;2024-01-15T05:50:17;18.98;;;6.60;;
30247;SDS011;17063;50.892;4.702;2024-01-15T05:52:44;16.60;;;5.88;;
30247;SDS011;17063;50.892;4.702;2024-01-15T05:55:11;13.80;;;5.97;;
30247;SDS011;17063;50.892;4.702;2024-01-15T05:57:38;13.52;;;5.60;;
30247;SDS011;17063;50.892;4.702;2024-01-15T06:00:05;16.58;;;5.32;;
30247;SDS011;17063;50.892;4.702;2024-01-15T06:02:32;11.05;;;5.38;;
30247;SDS011;17063;50.892;4.702;2024-01-15T06:04:59;10.77;;;4.32;;
30247;SDS011;17063;50.892;4.702;2024-01-15T06:07:26;12.90;;;5.05;;
30247;SDS011;17063;50.892;4.702;2024-01-15T06:09:53;7.80;;;4.05;;
30247;SDS011;17063;50.892;4.702;2024-01-15T06:12:20;11.75;;;4.88;;
30247;SDS011;17063;50.892;4.702;2024-01-15T06:14:47;12.75;;;4.50;;
30247;SDS011;17063;50.892;4.702;2024-01-15T06:17:13;8.30;;;3.30;;
30247;SDS011;17063;50.892;4.702;2024-01-15T06:19:40;8.13;;;3.70;;
30247;SDS011;17063;50.892;4.702;2024-01-15T06:22:07;8.70;;;3.30;;
30247;SDS011;17063;50.892;4.702;2024-01-15T06:24:34;7.47;;;3.25;;
30247;SDS011;17063;50.892;4.702;2024-01-15T06:27:01;5.93;;;3.25;;
30247;SDS011;17063;50.892;4.702;2024-01-15T06:29:28;12.10;;;3.00;;
30247;SDS011;17063;50.892;4.702;2024-01-15T06:31:55;5.40;;;2.70;;
30247;SDS011;17063;50.892;4.702;2024-01-15T06:34:21;10.23;;;3.13;;
30247;SDS011;17063;50.892;4.702;2024-01-15T06:36:48;5.07;;;2.42;;
30247;SDS011;17063;50.892;4.702;2024-01-15T06:39:17;9.38;;;2.70;;
30247;SDS011;17063;50.892;4.702;2024-01-15T06:41:44;7.97;;;2.38;;
30247;SDS011;17063;50.892;4.702;2024-01-15T06:44:11;7.60;;;3.40;;
30247;SDS011;17063;50.892;4.702;2024-01-15T06:46:43;11.70;;;2.60;;
30247;SDS011;17063;50.892;4.702;2024-01-15T06:49:10;5.20;;;2.30;;
30247;SDS011;17063;50.892;4.702;2024-01-15T06:51:38;4.28;;;2.22;;
30247;SDS011;17063;50.892;4.702;2024-01-15T06:54:04;9.32;;;2.50;;
30247;SDS011;17063;50.892;4.702;2024-01-15T06:56:31;7.25;;;1.95;;
30247;SDS011;17063;50.892;4.702;2024-01-15T06:58:58;8.02;;;2.20;;
30247;SDS011;17063;50.892;4.702;2024-01-15T07:01:25;8.20;;;2.22;;
30247;SDS011;17063;50.892;4.702;2024-01-15T07:03:52;8.73;;;2.00;;
30247;SDS011;17063;50.892;4.702;2024-01-15T07:06:19;5.20;;;2.13;;
30247;SDS011;17063;50.892;4.702;2024-01-15T07:08:46;4.50;;;2.13;;
30247;SDS011;17063;50.892;4.702;2024-01-15T07:11:13;6.88;;;1.83;;
30247;SDS011;17063;50.892;4.702;2024-01-15T07:13:40;6.15;;;1.73;;
30247;SDS011;17063;50.892;4.702;2024-01-15T07:16:07;4.15;;;1.63;;
30247;SDS011;17063;50.892;4.702;2024-01-15T07:18:34;6.10;;;1.15;;
30247;SDS011;17063;50.892;4.702;2024-01-15T07:21:01;6.28;;;1.38;;
30247;SDS011;17063;50.892;4.702;2024-01-15T07:23:29;4.30;;;1.35;;
30247;SDS011;17063;50.892;4.702;2024-01-15T07:25:57;4.57;;;1.27;;
30247;SDS011;17063;50.892;4.702;2024-01-15T07:28:24;6.28;;;1.40;;
30247;SDS011;17063;50.892;4.702;2024-01-15T07:30:51;4.15;;;1.25;;
30247;SDS011;17063;50.892;4.702;2024-01-15T07:33:18;8.15;;;1.33;;
30247;SDS011;17063;50.892;4.702;2024-01-15T07:35:46;8.07;;;1.38;;
30247;SDS011;17063;50.892;4.702;2024-01-15T07:38:13;1.90;;;1.20;;
30247;SDS011;17063;50.892;4.702;2024-01-15T07:40:40;5.22;;;1.60;;
30247;SDS011;17063;50.892;4.702;2024-01-15T07:43:07;5.82;;;1.30;;
30247;SDS011;17063;50.892;4.702;2024-01-15T07:45:34;6.10;;;1.33;;
30247;SDS011;17063;50.892;4.702;2024-01-15T07:48:01;2.05;;;1.42;;
30247;SDS011;17063;50.892;4.702;2024-01-15T07:50:29;5.60;;;1.52;;
30247;SDS011;17063;50.892;4.702;2024-01-15T07:52:56;4.88;;;1.33;;
30247;SDS011;17063;50.892;4.702;2024-01-15T07:55:23;4.97;;;1.55;;
30247;SDS011;17063;50.892;4.702;2024-01-15T07:57:50;3.20;;;1.20;;
30247;SDS011;17063;50.892;4.702;2024-01-15T08:00:31;8.60;;;2.03;;
30247;SDS011;17063;50.892;4.702;2024-01-15T08:02:59;4.50;;;1.75;;
30247;SDS011;17063;50.892;4.702;2024-01-15T08:05:26;6.05;;;1.77;;
30247;SDS011;17063;50.892;4.702;2024-01-15T08:07:53;10.93;;;1.67;;
30247;SDS011;17063;50.892;4.702;2024-01-15T08:10:24;8.27;;;1.80;;
30247;SDS011;17063;50.892;4.702;2024-01-15T08:12:51;7.18;;;1.55;;
30247;SDS011;17063;50.892;4.702;2024-01-15T08:15:18;4.63;;;1.90;;
30247;SDS011;17063;50.892;4.702;2024-01-15T08:17:45;7.45;;;1.70;;
30247;SDS011;17063;50.892;4.702;2024-01-15T08:20:12;6.00;;;1.55;;
30247;SDS011;17063;50.892;4.702;2024-01-15T08:22:39;6.50;;;1.50;;
30247;SDS011;17063;50.892;4.702;2024-01-15T08:25:06;4.40;;;1.60;;
30247;SDS011;17063;50.892;4.702;2024-01-15T08:27:33;2.28;;;1.35;;
30247;SDS011;17063;50.892;4.702;2024-01-15T08:30:00;7.05;;;1.85;;
30247;SDS011;17063;50.892;4.702;2024-01-15T08:32:27;6.28;;;1.70;;
30247;SDS011;17063;50.892;4.702;2024-01-15T08:34:54;11.07;;;2.53;;
30247;SDS011;17063;50.892;4.702;2024-01-15T08:37:21;5.32;;;1.80;;
30247;SDS011;17063;50.892;4.702;2024-01-15T08:39:47;12.93;;;2.10;;
30247;SDS011;17063;50.892;4.702;2024-01-15T08:42:17;8.75;;;1.70;;
30247;SDS011;17063;50.892;4.702;2024-01-15T08:44:45;4.93;;;1.80;;
30247;SDS011;17063;50.892;4.702;2024-01-15T08:47:15;5.93;;;1.45;;
30247;SDS011;17063;50.892;4.702;2024-01-15T08:49:42;8.00;;;1.98;;
30247;SDS011;17063;50.892;4.702;2024-01-15T08:52:10;11.23;;;1.60;;
30247;SDS011;17063;50.892;4.702;2024-01-15T08:54:38;8.27;;;1.70;;
30247;SDS011;17063;50.892;4.702;2024-01-15T08:57:05;7.60;;;1.65;;
30247;SDS011;17063;50.892;4.702;2024-01-15T08:59:31;2.78;;;1.52;;
30247;SDS011;17063;50.892;4.702;2024-01-15T09:02:00;6.40;;;1.50;;
30247;SDS011;17063;50.892;4.702;2024-01-15T09:04:27;6.78;;;1.88;;
30247;SDS011;17063;50.892;4.702;2024-01-15T09:06:54;11.85;;;1.70;;
30247;SDS011;17063;50.892;4.702;2024-01-15T09:09:21;3.65;;;1.55;;
30247;SDS011;17063;50.892;4.702;2024-01-15T09:11:49;8.18;;;1.58;;
30247;SDS011;17063;50.892;4.702;2024-01-15T09:14:15;13.18;;;1.60;;
30247;SDS011;17063;50.892;4.702;2024-01-15T09:16:51;4.03;;;1.48;;
30247;SDS011;17063;50.892;4.702;2024-01-15T09:19:19;4.93;;;1.45;;
30247;SDS011;17063;50.892;4.702;2024-01-15T09:21:46;5.47;;;1.90;;
30247;SDS011;17063;50.892;4.702;2024-01-15T09:24:13;5.50;;;1.50;;
30247;SDS011;17063;50.892;4.702;2024-01-15T09:26:40;4.00;;;1.63;;
30247;SDS011;17063;50.892;4.702;2024-01-15T09:29:07;8.55;;;1.55;;
30247;SDS011;17063;50.892;4.702;2024-01-15T09:31:34;4.93;;;1.50;;
30247;SDS011;17063;50.892;4.702;2024-01-15T09:34:01;8.00;;;1.80;;
30247;SDS011;17063;50.892;4.702;2024-01-15T09:36:28;4.22;;;1.52;;
30247;SDS011;17063;50.892;4.702;2024-01-15T09:38:55;7.57;;;1.65;;
30247;SDS011;17063;50.892;4.702;2024-01-15T09:41:22;4.70;;;1.40;;
30247;SDS011;17063;50.892;4.702;2024-01-15T09:43:50;7.03;;;1.60;;
30247;SDS011;17063;50.892;4.702;2024-01-15T09:46:18;7.35;;;1.65;;
30247;SDS011;17063;50.892;4.702;2024-01-15T09:48:45;5.45;;;1.60;;
30247;SDS011;17063;50.892;4.702;2024-01-15T09:51:12;8.20;;;1.60;;
30247;SDS011;17063;50.892;4.702;2024-01-15T09:53:39;5.28;;;1.83;;
30247;SDS011;17063;50.892;4.702;2024-01-15T09:56:07;9.18;;;1.88;;
30247;SDS011;17063;50.892;4.702;2024-01-15T09:58:35;9.85;;;1.55;;
30247;SDS011;17063;50.892;4.702;2024-01-15T10:01:01;5.40;;;1.50;;
30247;SDS011;17063;50.892;4.702;2024-01-15T10:03:34;8.70;;;1.40;;
30247;SDS011;17063;50.892;4.702;2024-01-15T10:06:01;4.25;;;1.27;;
30247;SDS011;17063;50.892;4.702;2024-01-15T10:08:29;2.88;;;1.33;;
30247;SDS011;17063;50.892;4.702;2024-01-15T10:10:55;8.20;;;1.65;;
30247;SDS011;17063;50.892;4.702;2024-01-15T10:13:22;7.53;;;2.25;;
30247;SDS011;17063;50.892;4.702;2024-01-15T10:15:49;7.68;;;1.63;;
30247;SDS011;17063;50.892;4.702;2024-01-15T10:18:17;7.07;;;1.50;;
30247;SDS011;17063;50.892;4.702;2024-01-15T10:20:44;8.13;;;1.30;;
30247;SDS011;17063;50.892;4.702;2024-01-15T10:23:14;4.72;;;1.33;;
30247;SDS011;17063;50.892;4.702;2024-01-15T10:25:41;8.02;;;1.13;;
30247;SDS011;17063;50.892;4.702;2024-01-15T10:28:08;3.78;;;1.27;;
30247;SDS011;17063;50.892;4.702;2024-01-15T10:30:36;6.10;;;1.48;;
30247;SDS011;17063;50.892;4.702;2024-01-15T10:33:03;10.80;;;1.60;;
30247;SDS011;17063;50.892;4.702;2024-01-15T10:35:32;4.20;;;1.20;;
30247;SDS011;17063;50.892;4.702;2024-01-15T10:38:00;5.38;;;1.60;;
30247;SDS011;17063;50.892;4.702;2024-01-15T10:40:28;4.78;;;1.30;;
30247;SDS011;17063;50.892;4.702;2024-01-15T10:42:55;3.67;;;1.77;;
30247;SDS011;17063;50.892;4.702;2024-01-15T10:45:23;10.93;;;1.50;;
30247;SDS011;17063;50.892;4.702;2024-01-15T10:47:50;5.95;;;1.65;;
30247;SDS011;17063;50.892;4.702;2024-01-15T10:50:17;11.23;;;1.40;;
30247;SDS011;17063;50.892;4.702;2024-01-15T10:52:44;4.63;;;1.10;;
30247;SDS011;17063;50.892;4.702;2024-01-15T10:55:12;4.22;;;1.13;;
30247;SDS011;17063;50.892;4.702;2024-01-15T10:57:45;3.30;;;1.13;;
30247;SDS011;17063;50.892;4.702;2024-01-15T11:00:14;3.28;;;1.15;;
30247;SDS011;17063;50.892;4.702;2024-01-15T11:02:42;4.07;;;1.00;;
30247;SDS011;17063;50.892;4.702;2024-01-15T11:05:12;9.68;;;1.25;;
30247;SDS011;17063;50.892;4.702;2024-01-15T11:07:40;3.35;;;1.25;;
30247;SDS011;17063;50.892;4.702;2024-01-15T11:10:08;8.50;;;1.20;;
30247;SDS011;17063;50.892;4.702;2024-01-15T11:13:22;4.18;;;1.60;;
30247;SDS011;17063;50.892;4.702;2024-01-15T11:16:04;4.78;;;1.30;;
30247;SDS011;17063;50.892;4.702;2024-01-15T11:18:37;4.57;;;1.40;;
30247;SDS011;17063;50.892;4.702;2024-01-15T11:23:56;8.23;;;1.50;;
30247;SDS011;17063;50.892;4.702;2024-01-15T11:29:07;10.40;;;1.75;;
30247;SDS011;17063;50.892;4.702;2024-01-15T11:34:06;4.65;;;1.20;;
30247;SDS011;17063;50.892;4.702;2024-01-15T11:40:02;1.85;;;1.33;;
30247;SDS011;17063;50.892;4.702;2024-01-15T11:42:09;7.78;;;1.13;;
30247;SDS011;17063;50.892;4.702;2024-01-15T11:44:38;12.05;;;1.27;;
30247;SDS011;17063;50.892;4.702;2024-01-15T11:47:08;7.25;;;1.35;;
30247;SDS011;17063;50.892;4.702;2024-01-15T11:52:33;4.47;;;1.02;;
30247;SDS011;17063;50.892;4.702;2024-01-15T11:55:02;2.78;;;1.00;;
30247;SDS011;17063;50.892;4.702;2024-01-15T11:57:40;7.37;;;1.50;;
30247;SDS011;17063;50.892;4.702;2024-01-15T12:00:08;5.87;;;1.10;;
30247;SDS011;17063;50.892;4.702;2024-01-15T12:02:42;6.95;;;1.38;;
30247;SDS011;17063;50.892;4.702;2024-01-15T12:05:11;5.65;;;1.00;;
30247;SDS011;17063;50.892;4.702;2024-01-15T12:07:42;8.25;;;1.33;;
30247;SDS011;17063;50.892;4.702;2024-01-15T12:10:14;4.35;;;1.02;;
30247;SDS011;17063;50.892;4.702;2024-01-15T12:15:12;4.43;;;1.25;;
30247;SDS011;17063;50.892;4.702;2024-01-15T12:17:39;8.32;;;1.50;;
30247;SDS011;17063;50.892;4.702;2024-01-15T12:20:06;4.63;;;1.20;;
30247;SDS011;17063;50.892;4.702;2024-01-15T12:22:33;4.00;;;0.95;;
30247;SDS011;17063;50.892;4.702;2024-01-15T12:25:21;5.72;;;1.23;;
30247;SDS011;17063;50.892;4.702;2024-01-15T12:27:48;7.85;;;1.35;;
30247;SDS011;17063;50.892;4.702;2024-01-15T12:30:15;10.30;;;1.30;;
30247;SDS011;17063;50.892;4.702;2024-01-15T12:32:42;2.97;;;1.10;;
30247;SDS011;17063;50.892;4.702;2024-01-15T12:35:10;1.47;;;1.00;;
30247;SDS011;17063;50.892;4.702;2024-01-15T12:37:41;5.50;;;1.47;;
30247;SDS011;17063;50.892;4.702;2024-01-15T12:40:09;5.43;;;1.60;;
30247;SDS011;17063;50.892;4.702;2024-01-15T12:42:37;5.50;;;1.27;;
30247;SDS011;17063;50.892;4.702;2024-01-15T12:45:06;10.27;;;1.30;;
30247;SDS011;17063;50.892;4.702;2024-01-15T12:47:33;4.43;;;1.40;;
30247;SDS011;17063;50.892;4.702;2024-01-15T12:50:00;5.20;;;1.57;;
30247;SDS011;17063;50.892;4.702;2024-01-15T12:52:41;3.42;;;1.20;;
30247;SDS011;17063;50.892;4.702;2024-01-15T12:55:08;4.63;;;1.02;;
30247;SDS011;17063;50.892;4.702;2024-01-15T12:57:36;6.80;;;0.97;;
30247;SDS011;17063;50.892;4.702;2024-01-15T13:00:03;5.80;;;1.45;;
30247;SDS011;17063;50.892;4.702;2024-01-15T13:02:40;9.93;;;1.80;;
30247;SDS011;17063;50.892;4.702;2024-01-15T13:05:09;7.30;;;1.63;;
30247;SDS011;17063;50.892;4.702;2024-01-15T13:07:41;4.68;;;1.35;;
30247;SDS011;17063;50.892;4.702;2024-01-15T13:10:09;9.07;;;1.48;;
30247;SDS011;17063;50.892;4.702;2024-01-15T13:12:37;12.90;;;1.88;;
30247;SDS011;17063;50.892;4.702;2024-01-15T13:15:05;6.13;;;1.63;;
30247;SDS011;17063;50.892;4.702;2024-01-15T13:17:40;3.55;;;1.13;;
30247;SDS011;17063;50.892;4.702;2024-01-15T13:20:08;1.23;;;0.90;;
30247;SDS011;17063;50.892;4.702;2024-01-15T13:22:36;5.93;;;1.08;;
30247;SDS011;17063;50.892;4.702;2024-01-15T13:25:06;1.27;;;0.70;;
30247;SDS011;17063;50.892;4.702;2024-01-15T13:27:35;1.98;;;0.85;;
30247;SDS011;17063;50.892;4.702;2024-01-15T13:30:02;2.20;;;0.88;;
30247;SDS011;17063;50.892;4.702;2024-01-15T13:32:31;1.05;;;0.63;;
30247;SDS011;17063;50.892;4.702;2024-01-15T13:34:57;3.38;;;0.70;;
30247;SDS011;17063;50.892;4.702;2024-01-15T13:37:25;1.50;;;0.75;;
30247;SDS011;17063;50.892;4.702;2024-01-15T13:39:52;0.65;;;0.60;;
30247;SDS011;17063;50.892;4.702;2024-01-15T13:42:20;2.70;;;0.65;;
30247;SDS011;17063;50.892;4.702;2024-01-15T13:44:50;1.00;;;0.40;;
30247;SDS011;17063;50.892;4.702;2024-01-15T13:47:18;0.88;;;0.60;;
30247;SDS011;17063;50.892;4.702;2024-01-15T13:49:45;1.75;;;0.75;;
30247;SDS011;17063;50.892;4.702;2024-01-15T13:52:12;2.10;;;0.70;;
30247;SDS011;17063;50.892;4.702;2024-01-15T13:54:39;1.48;;;0.80;;
30247;SDS011;17063;50.892;4.702;2024-01-15T13:57:16;1.80;;;0.98;;
30247;SDS011;17063;50.892;4.702;2024-01-15T13:59:44;1.25;;;0.80;;
30247;SDS011;17063;50.892;4.702;2024-01-15T14:02:11;0.77;;;0.70;;
30247;SDS011;17063;50.892;4.702;2024-01-15T14:04:42;3.15;;;1.65;;
30247;SDS011;17063;50.892;4.702;2024-01-15T14:07:09;3.03;;;0.60;;
30247;SDS011;17063;50.892;4.702;2024-01-15T14:09:35;0.82;;;0.70;;
30247;SDS011;17063;50.892;4.702;2024-01-15T14:12:04;2.60;;;0.43;;
30247;SDS011;17063;50.892;4.702;2024-01-15T14:14:33;1.63;;;0.70;;
30247;SDS011;17063;50.892;4.702;2024-01-15T14:17:03;2.22;;;0.70;;
30247;SDS011;17063;50.892;4.702;2024-01-15T14:19:32;1.95;;;0.40;;
30247;SDS011;17063;50.892;4.702;2024-01-15T14:21:59;0.45;;;0.40;;
30247;SDS011;17063;50.892;4.702;2024-01-15T14:24:28;1.88;;;0.63;;
30247;SDS011;17063;50.892;4.702;2024-01-15T14:26:55;2.97;;;0.68;;
30247;SDS011;17063;50.892;4.702;2024-01-15T14:29:23;0.50;;;0.50;;
30247;SDS011;17063;50.892;4.702;2024-01-15T14:31:52;1.95;;;0.50;;
30247;SDS011;17063;50.892;4.702;2024-01-15T14:34:20;2.10;;;0.60;;
30247;SDS011;17063;50.892;4.702;2024-01-15T14:36:50;1.85;;;0.68;;
30247;SDS011;17063;50.892;4.702;2024-01-15T14:39:21;2.72;;;0.75;;
30247;SDS011;17063;50.892;4.702;2024-01-15T14:41:49;1.02;;;0.77;;
30247;SDS011;17063;50.892;4.702;2024-01-15T14:44:16;3.85;;;0.93;;
30247;SDS011;17063;50.892;4.702;2024-01-15T14:46:44;2.58;;;1.50;;
30247;SDS011;17063;50.892;4.702;2024-01-15T14:49:12;1.95;;;1.15;;
30247;SDS011;17063;50.892;4.702;2024-01-15T14:51:41;4.03;;;1.70;;
30247;SDS011;17063;50.892;4.702;2024-01-15T14:54:08;4.47;;;1.35;;
30247;SDS011;17063;50.892;4.702;2024-01-15T14:56:35;1.20;;;0.80;;
30247;SDS011;17063;50.892;4.702;2024-01-15T14:59:02;0.73;;;0.73;;
30247;SDS011;17063;50.892;4.702;2024-01-15T15:01:29;2.67;;;1.13;;
30247;SDS011;17063;50.892;4.702;2024-01-15T15:03:57;2.60;;;1.10;;